ASN logo
Accident
Last updated: 20 October 2017
Statuts:Préliminaire
Date:vendredi 15 septembre 2017
Heure:21:59
Type/Sous-type:Silhouette image of generic A321 model; specific model in this crash may look slightly different
Airbus A321-231 (WL)
Compagnie:American Airlines
Immatriculation: N137AA
Numéro de série: 6647
Année de Fabrication: 2015-06-10 (2 years 3 months)
Moteurs: 2 IAE V2533-A5
Equipage:victimes: 0 / à bord:
Passagers:victimes: 0 / à bord:
Total:victimes: 0 / à bord:
Dégats de l'appareil: Substantiels
Conséquences: Repaired
Lieu de l'accident:Bridgetown-Grantley Adams International Airport (BGI) (   La Barbade)
Phase de vol: A l'atterrissage (LDG)
Nature:Transport de Passagers Intern.
Aéroport de départ:Miami International Airport, FL (MIA/KMIA), Etats-Unis d'Amérique
Aéroport de destination:Bridgetown-Grantley Adams International Airport (BGI/TBPB), La Barbade
Numéro de vol:AA2393
Détails:
American Airlines flight AA2393 sustained substantial damage in a tailstrike accident on landing at Bridgetown-Grantley Adams International Airport, Barbados. The aircraft, an Airbus A321-231, departed Miami International Airport at 18:42 hours local time (22:42 UTC). The flight touched down on runway 09 at the destination Bridgetown Airport at 21:59 hours local time (01:59 UTC, September 16). During touchdown the tail section struck the runway. The aircraft proceeded normally to the apron.
On September 28 the aircraft was ferried at low altitude (FL100) to Miami and continuing to San Antonio the next day, also at FL100.

Sources:
» BEA

METAR Weather report:
00:00 UTC / 20:00 local time:
TBPB 160000Z 10010KT 9999 FEW018 28/25 Q1013 NOSIG

01:00 UTC / 21:00 local time:
TBPB 160100Z 09011KT 9999 SCT018 28/26 Q1014 NOSIG

02:00 UTC / 22:00 local time:
TBPB 160200Z 09012KT 9999 FEW016 28/26 Q1015 NOSIG


Photos

Add your photo of this accident or aircraft

Plan
Ce plan montre l'aéroport de départ ainsi que la supposée destination du vol. La ligne fixe reliant les deux aéroports n'est pas le plan de vol exact.
La distance entre Miami International Airport, FL et Bridgetown-Grantley Adams International Airport est de 2577 km (1611 miles).
Accident location: Approximate; accuracy within a few kilometers.

Les informations ci-dessus ne représentent pas l'opinion de la 'Flight Safety Foundation' ou de 'Aviation Safety Network' sur les causes de l'accident. Ces informations prélimimaires sont basées sur les faits tel qu'ils sont connus à ce jour.
languages: languages

Share